sensor_id;sensor_type;location;lat;lon;timestamp;pressure;altitude;pressure_sealevel;temperature;humidity
4449;BME280;2237;51.870;6.160;2022-12-26T00:02:00;100876.19;;;11.09;100.00
4449;BME280;2237;51.870;6.160;2022-12-26T00:04:26;100877.13;;;11.07;100.00
4449;BME280;2237;51.870;6.160;2022-12-26T00:07:13;100871.09;;;11.05;100.00
4449;BME280;2237;51.870;6.160;2022-12-26T00:09:39;100870.34;;;11.00;100.00
4449;BME280;2237;51.870;6.160;2022-12-26T00:12:05;100884.22;;;11.00;100.00
4449;BME280;2237;51.870;6.160;2022-12-26T00:14:32;100879.13;;;10.96;100.00
4449;BME280;2237;51.870;6.160;2022-12-26T00:16:58;100881.91;;;10.88;100.00
4449;BME280;2237;51.870;6.160;2022-12-26T00:19:24;100880.22;;;10.86;100.00
4449;BME280;2237;51.870;6.160;2022-12-26T00:21:51;100881.06;;;10.88;100.00
4449;BME280;2237;51.870;6.160;2022-12-26T00:24:17;100876.78;;;10.84;100.00
4449;BME280;2237;51.870;6.160;2022-12-26T00:26:44;100872.31;;;10.89;100.00
4449;BME280;2237;51.870;6.160;2022-12-26T00:29:10;100887.28;;;10.81;100.00
4449;BME280;2237;51.870;6.160;2022-12-26T00:31:36;100888.44;;;10.67;100.00
4449;BME280;2237;51.870;6.160;2022-12-26T00:34:03;100892.00;;;10.63;100.00
4449;BME280;2237;51.870;6.160;2022-12-26T00:36:31;100891.88;;;10.69;100.00
4449;BME280;2237;51.870;6.160;2022-12-26T00:38:59;100894.44;;;10.71;100.00
4449;BME280;2237;51.870;6.160;2022-12-26T00:41:26;100898.75;;;10.72;100.00
4449;BME280;2237;51.870;6.160;2022-12-26T00:43:52;100901.97;;;10.83;100.00
4449;BME280;2237;51.870;6.160;2022-12-26T00:46:19;100908.31;;;10.71;100.00
4449;BME280;2237;51.870;6.160;2022-12-26T00:48:45;100917.59;;;10.85;100.00
4449;BME280;2237;51.870;6.160;2022-12-26T00:51:12;100926.34;;;10.81;100.00
4449;BME280;2237;51.870;6.160;2022-12-26T00:53:39;100919.22;;;10.90;100.00
4449;BME280;2237;51.870;6.160;2022-12-26T00:56:06;100918.66;;;10.74;100.00
4449;BME280;2237;51.870;6.160;2022-12-26T00:58:32;100915.13;;;10.77;100.00
4449;BME280;2237;51.870;6.160;2022-12-26T01:01:15;100918.31;;;10.91;100.00
4449;BME280;2237;51.870;6.160;2022-12-26T01:03:43;100924.09;;;11.04;100.00
4449;BME280;2237;51.870;6.160;2022-12-26T01:06:10;100917.34;;;10.97;100.00
4449;BME280;2237;51.870;6.160;2022-12-26T01:08:37;100929.28;;;11.05;100.00
4449;BME280;2237;51.870;6.160;2022-12-26T01:11:11;100946.06;;;10.94;100.00
4449;BME280;2237;51.870;6.160;2022-12-26T01:13:38;100948.59;;;10.97;100.00
4449;BME280;2237;51.870;6.160;2022-12-26T01:16:05;100956.56;;;10.89;100.00
4449;BME280;2237;51.870;6.160;2022-12-26T01:18:32;100946.13;;;10.91;100.00
4449;BME280;2237;51.870;6.160;2022-12-26T01:21:00;100938.78;;;11.45;100.00
4449;BME280;2237;51.870;6.160;2022-12-26T01:23:27;100933.47;;;11.49;100.00
4449;BME280;2237;51.870;6.160;2022-12-26T01:25:54;100951.03;;;11.41;100.00
4449;BME280;2237;51.870;6.160;2022-12-26T01:28:40;100956.44;;;11.32;100.00
4449;BME280;2237;51.870;6.160;2022-12-26T01:31:07;100945.34;;;11.25;100.00
4449;BME280;2237;51.870;6.160;2022-12-26T01:33:35;100959.44;;;11.17;100.00
4449;BME280;2237;51.870;6.160;2022-12-26T01:36:02;100962.81;;;11.20;100.00
4449;BME280;2237;51.870;6.160;2022-12-26T01:38:28;100962.03;;;11.17;100.00
4449;BME280;2237;51.870;6.160;2022-12-26T01:40:55;100943.59;;;11.24;100.00
4449;BME280;2237;51.870;6.160;2022-12-26T01:46:12;100942.88;;;11.19;100.00
4449;BME280;2237;51.870;6.160;2022-12-26T01:48:39;100938.44;;;11.23;100.00
4449;BME280;2237;51.870;6.160;2022-12-26T01:51:06;100937.59;;;11.21;100.00
4449;BME280;2237;51.870;6.160;2022-12-26T01:53:36;100931.66;;;11.16;100.00
4449;BME280;2237;51.870;6.160;2022-12-26T01:56:08;100929.03;;;11.16;100.00
4449;BME280;2237;51.870;6.160;2022-12-26T01:58:41;100944.06;;;11.05;100.00
4449;BME280;2237;51.870;6.160;2022-12-26T02:01:09;100943.03;;;11.12;100.00
4449;BME280;2237;51.870;6.160;2022-12-26T02:03:37;100934.38;;;11.10;100.00
4449;BME280;2237;51.870;6.160;2022-12-26T02:06:23;100942.34;;;11.04;100.00
4449;BME280;2237;51.870;6.160;2022-12-26T02:08:50;100942.38;;;11.02;100.00
4449;BME280;2237;51.870;6.160;2022-12-26T02:11:37;100940.59;;;11.04;100.00
4449;BME280;2237;51.870;6.160;2022-12-26T02:14:06;100947.59;;;11.02;100.00
4449;BME280;2237;51.870;6.160;2022-12-26T02:16:34;100941.72;;;10.93;100.00
4449;BME280;2237;51.870;6.160;2022-12-26T02:19:02;100936.72;;;10.84;100.00
4449;BME280;2237;51.870;6.160;2022-12-26T02:22:27;100934.91;;;10.87;100.00
4449;BME280;2237;51.870;6.160;2022-12-26T02:31:26;100949.00;;;10.78;100.00
4449;BME280;2237;51.870;6.160;2022-12-26T02:44:28;100970.75;;;10.76;100.00
4449;BME280;2237;51.870;6.160;2022-12-26T02:47:27;100960.28;;;10.79;100.00
4449;BME280;2237;51.870;6.160;2022-12-26T02:53:12;100956.16;;;10.67;100.00
4449;BME280;2237;51.870;6.160;2022-12-26T02:56:12;100956.09;;;10.70;100.00
4449;BME280;2237;51.870;6.160;2022-12-26T02:59:15;100950.09;;;10.67;100.00
4449;BME280;2237;51.870;6.160;2022-12-26T03:02:26;100945.75;;;10.67;100.00
4449;BME280;2237;51.870;6.160;2022-12-26T03:05:19;100943.97;;;10.69;100.00
4449;BME280;2237;51.870;6.160;2022-12-26T03:08:08;100949.25;;;10.66;100.00
4449;BME280;2237;51.870;6.160;2022-12-26T03:10:57;100957.16;;;10.60;100.00
4449;BME280;2237;51.870;6.160;2022-12-26T03:13:44;100958.91;;;10.61;100.00
4449;BME280;2237;51.870;6.160;2022-12-26T03:16:11;100965.91;;;10.58;100.00
4449;BME280;2237;51.870;6.160;2022-12-26T03:19:02;100971.88;;;10.64;100.00
4449;BME280;2237;51.870;6.160;2022-12-26T03:21:37;100957.06;;;10.66;100.00
4449;BME280;2237;51.870;6.160;2022-12-26T03:24:09;100944.09;;;10.63;100.00
4449;BME280;2237;51.870;6.160;2022-12-26T03:26:39;100943.16;;;10.66;100.00
4449;BME280;2237;51.870;6.160;2022-12-26T03:29:18;100953.63;;;10.64;100.00
4449;BME280;2237;51.870;6.160;2022-12-26T03:32:06;100953.75;;;10.58;100.00
4449;BME280;2237;51.870;6.160;2022-12-26T03:34:33;100957.22;;;10.57;100.00
4449;BME280;2237;51.870;6.160;2022-12-26T03:37:35;100958.91;;;10.60;100.00
4449;BME280;2237;51.870;6.160;2022-12-26T03:50:00;100937.44;;;10.50;100.00
4449;BME280;2237;51.870;6.160;2022-12-26T03:53:23;100947.78;;;10.53;100.00
4449;BME280;2237;51.870;6.160;2022-12-26T03:56:24;100932.13;;;10.55;100.00
4449;BME280;2237;51.870;6.160;2022-12-26T03:59:21;100940.78;;;10.55;100.00
4449;BME280;2237;51.870;6.160;2022-12-26T04:02:11;100935.53;;;10.58;100.00
4449;BME280;2237;51.870;6.160;2022-12-26T04:04:57;100926.81;;;10.59;100.00
4449;BME280;2237;51.870;6.160;2022-12-26T04:07:49;100932.00;;;10.61;100.00
4449;BME280;2237;51.870;6.160;2022-12-26T04:10:49;100953.94;;;10.49;100.00
4449;BME280;2237;51.870;6.160;2022-12-26T04:13:53;100969.63;;;10.46;100.00
4449;BME280;2237;51.870;6.160;2022-12-26T04:16:43;100964.28;;;10.52;100.00
4449;BME280;2237;51.870;6.160;2022-12-26T04:22:38;100971.94;;;10.60;100.00
4449;BME280;2237;51.870;6.160;2022-12-26T04:25:30;100978.81;;;10.64;100.00
4449;BME280;2237;51.870;6.160;2022-12-26T04:28:20;100987.66;;;10.55;100.00
4449;BME280;2237;51.870;6.160;2022-12-26T04:31:17;101009.47;;;10.50;100.00
4449;BME280;2237;51.870;6.160;2022-12-26T04:34:08;101012.03;;;10.51;100.00
4449;BME280;2237;51.870;6.160;2022-12-26T04:36:59;101012.97;;;10.49;100.00
4449;BME280;2237;51.870;6.160;2022-12-26T04:39:48;101015.50;;;10.53;100.00
4449;BME280;2237;51.870;6.160;2022-12-26T04:42:36;101005.88;;;10.55;100.00
4449;BME280;2237;51.870;6.160;2022-12-26T04:45:22;101010.28;;;10.52;100.00
4449;BME280;2237;51.870;6.160;2022-12-26T04:47:49;101000.81;;;10.48;100.00
4449;BME280;2237;51.870;6.160;2022-12-26T04:50:34;101007.00;;;10.42;100.00
4449;BME280;2237;51.870;6.160;2022-12-26T04:53:01;100998.13;;;10.52;100.00
4449;BME280;2237;51.870;6.160;2022-12-26T04:55:29;100993.63;;;10.60;100.00
4449;BME280;2237;51.870;6.160;2022-12-26T04:57:56;100990.16;;;10.61;100.00
4449;BME280;2237;51.870;6.160;2022-12-26T05:00:24;100982.47;;;10.55;100.00
4449;BME280;2237;51.870;6.160;2022-12-26T05:02:51;100976.50;;;10.50;100.00
4449;BME280;2237;51.870;6.160;2022-12-26T05:05:46;100973.91;;;10.49;100.00
4449;BME280;2237;51.870;6.160;2022-12-26T05:08:25;100974.75;;;10.49;100.00
4449;BME280;2237;51.870;6.160;2022-12-26T05:11:12;100959.31;;;10.42;100.00
4449;BME280;2237;51.870;6.160;2022-12-26T05:13:39;100948.19;;;10.32;100.00
4449;BME280;2237;51.870;6.160;2022-12-26T05:16:05;100955.03;;;10.36;100.00
4449;BME280;2237;51.870;6.160;2022-12-26T05:18:50;100949.00;;;10.36;100.00
4449;BME280;2237;51.870;6.160;2022-12-26T05:21:36;100958.56;;;10.34;100.00
4449;BME280;2237;51.870;6.160;2022-12-26T05:24:22;100982.06;;;10.31;100.00
4449;BME280;2237;51.870;6.160;2022-12-26T05:27:11;100991.69;;;10.26;100.00
4449;BME280;2237;51.870;6.160;2022-12-26T05:29:57;100985.75;;;10.19;100.00
4449;BME280;2237;51.870;6.160;2022-12-26T05:32:23;100997.13;;;10.13;100.00
4449;BME280;2237;51.870;6.160;2022-12-26T05:35:09;100984.97;;;10.14;100.00
4449;BME280;2237;51.870;6.160;2022-12-26T05:37:35;100986.72;;;10.12;100.00
4449;BME280;2237;51.870;6.160;2022-12-26T05:40:02;100991.94;;;10.12;100.00
4449;BME280;2237;51.870;6.160;2022-12-26T05:42:28;100993.66;;;10.10;100.00
4449;BME280;2237;51.870;6.160;2022-12-26T05:44:55;100988.47;;;10.11;100.00
4449;BME280;2237;51.870;6.160;2022-12-26T05:47:21;100982.50;;;10.05;100.00
4449;BME280;2237;51.870;6.160;2022-12-26T05:49:47;100986.00;;;10.04;100.00
4449;BME280;2237;51.870;6.160;2022-12-26T05:52:14;100986.97;;;9.97;100.00
4449;BME280;2237;51.870;6.160;2022-12-26T05:54:40;100974.00;;;9.95;100.00
4449;BME280;2237;51.870;6.160;2022-12-26T05:57:07;100986.88;;;10.01;100.00
4449;BME280;2237;51.870;6.160;2022-12-26T05:59:33;100982.56;;;10.02;100.00
4449;BME280;2237;51.870;6.160;2022-12-26T06:01:59;100969.59;;;10.00;100.00
4449;BME280;2237;51.870;6.160;2022-12-26T06:04:26;100973.06;;;9.99;100.00
4449;BME280;2237;51.870;6.160;2022-12-26T06:06:52;100963.56;;;9.97;100.00
4449;BME280;2237;51.870;6.160;2022-12-26T06:09:22;100951.50;;;9.93;100.00
4449;BME280;2237;51.870;6.160;2022-12-26T06:11:48;100944.63;;;9.89;100.00
4449;BME280;2237;51.870;6.160;2022-12-26T06:14:15;100948.22;;;9.83;100.00
4449;BME280;2237;51.870;6.160;2022-12-26T06:16:42;100942.22;;;9.78;100.00
4449;BME280;2237;51.870;6.160;2022-12-26T06:19:08;100938.78;;;9.76;100.00
4449;BME280;2237;51.870;6.160;2022-12-26T06:21:35;100947.41;;;9.80;100.00
4449;BME280;2237;51.870;6.160;2022-12-26T06:24:01;100937.09;;;9.74;100.00
4449;BME280;2237;51.870;6.160;2022-12-26T06:26:27;100936.19;;;9.78;100.00
4449;BME280;2237;51.870;6.160;2022-12-26T06:28:54;100933.69;;;9.72;100.00
4449;BME280;2237;51.870;6.160;2022-12-26T06:31:22;100944.94;;;9.72;100.00
4449;BME280;2237;51.870;6.160;2022-12-26T06:33:53;100962.34;;;9.69;100.00
4449;BME280;2237;51.870;6.160;2022-12-26T06:36:22;100966.72;;;9.63;100.00
4449;BME280;2237;51.870;6.160;2022-12-26T06:38:49;100965.94;;;9.60;100.00
4449;BME280;2237;51.870;6.160;2022-12-26T06:41:18;100963.25;;;9.64;100.00
4449;BME280;2237;51.870;6.160;2022-12-26T06:43:45;100973.69;;;9.61;100.00
4449;BME280;2237;51.870;6.160;2022-12-26T06:46:17;100983.19;;;9.64;100.00
4449;BME280;2237;51.870;6.160;2022-12-26T06:48:43;100982.31;;;9.65;100.00
4449;BME280;2237;51.870;6.160;2022-12-26T06:51:13;100991.00;;;9.64;100.00
4449;BME280;2237;51.870;6.160;2022-12-26T06:53:41;100991.94;;;9.60;100.00
4449;BME280;2237;51.870;6.160;2022-12-26T06:56:10;100994.53;;;9.58;100.00
4449;BME280;2237;51.870;6.160;2022-12-26T06:58:37;100996.28;;;9.59;100.00
4449;BME280;2237;51.870;6.160;2022-12-26T07:01:11;101005.81;;;9.60;100.00
4449;BME280;2237;51.870;6.160;2022-12-26T07:03:38;101007.31;;;9.74;100.00
4449;BME280;2237;51.870;6.160;2022-12-26T07:06:25;101016.97;;;9.65;100.00
4449;BME280;2237;51.870;6.160;2022-12-26T07:08:54;101014.34;;;9.69;100.00
4449;BME280;2237;51.870;6.160;2022-12-26T07:11:26;101005.50;;;9.79;100.00
4449;BME280;2237;51.870;6.160;2022-12-26T07:13:53;101006.16;;;9.90;100.00
4449;BME280;2237;51.870;6.160;2022-12-26T07:16:21;101011.41;;;9.87;100.00
4449;BME280;2237;51.870;6.160;2022-12-26T07:18:47;101021.78;;;9.90;100.00
4449;BME280;2237;51.870;6.160;2022-12-26T07:21:14;101015.75;;;9.88;100.00
4449;BME280;2237;51.870;6.160;2022-12-26T07:23:41;101020.06;;;9.89;100.00
4449;BME280;2237;51.870;6.160;2022-12-26T07:26:08;101021.00;;;9.85;100.00
4449;BME280;2237;51.870;6.160;2022-12-26T07:28:34;101018.44;;;9.82;100.00
4449;BME280;2237;51.870;6.160;2022-12-26T07:31:01;101023.75;;;9.76;100.00
4449;BME280;2237;51.870;6.160;2022-12-26T07:33:28;101020.41;;;9.69;100.00
4449;BME280;2237;51.870;6.160;2022-12-26T07:36:02;101023.78;;;9.73;100.00
4449;BME280;2237;51.870;6.160;2022-12-26T07:38:29;101024.66;;;9.73;100.00
4449;BME280;2237;51.870;6.160;2022-12-26T07:40:56;101007.28;;;9.75;100.00
4449;BME280;2237;51.870;6.160;2022-12-26T07:43:23;101013.38;;;9.73;100.00
4449;BME280;2237;51.870;6.160;2022-12-26T07:45:50;101030.69;;;9.75;100.00
4449;BME280;2237;51.870;6.160;2022-12-26T07:48:16;101029.00;;;9.73;100.00
4449;BME280;2237;51.870;6.160;2022-12-26T07:50:42;101029.81;;;9.76;100.00
4449;BME280;2237;51.870;6.160;2022-12-26T07:53:13;101019.41;;;9.78;100.00
4449;BME280;2237;51.870;6.160;2022-12-26T07:55:39;101026.34;;;9.76;100.00
4449;BME280;2237;51.870;6.160;2022-12-26T07:58:06;101022.88;;;9.77;100.00
4449;BME280;2237;51.870;6.160;2022-12-26T08:00:32;101022.84;;;9.78;100.00
4449;BME280;2237;51.870;6.160;2022-12-26T08:02:58;101023.75;;;9.76;100.00
4449;BME280;2237;51.870;6.160;2022-12-26T08:05:33;101017.63;;;9.80;100.00
4449;BME280;2237;51.870;6.160;2022-12-26T08:07:59;101012.44;;;9.78;100.00
4449;BME280;2237;51.870;6.160;2022-12-26T08:10:25;101017.63;;;9.80;100.00
4449;BME280;2237;51.870;6.160;2022-12-26T08:12:52;101025.44;;;9.78;100.00
4449;BME280;2237;51.870;6.160;2022-12-26T08:15:18;101021.81;;;9.88;100.00
4449;BME280;2237;51.870;6.160;2022-12-26T08:17:45;101019.22;;;9.87;100.00
4449;BME280;2237;51.870;6.160;2022-12-26T08:20:11;101026.25;;;9.82;100.00
4449;BME280;2237;51.870;6.160;2022-12-26T08:22:37;101028.91;;;9.79;100.00
4449;BME280;2237;51.870;6.160;2022-12-26T08:25:04;101030.72;;;9.74;100.00
4449;BME280;2237;51.870;6.160;2022-12-26T08:27:31;101025.53;;;9.74;100.00
4449;BME280;2237;51.870;6.160;2022-12-26T08:29:57;101013.34;;;9.76;100.00
4449;BME280;2237;51.870;6.160;2022-12-26T08:32:23;101025.59;;;9.68;100.00
4449;BME280;2237;51.870;6.160;2022-12-26T08:34:50;101026.38;;;9.74;100.00
4449;BME280;2237;51.870;6.160;2022-12-26T08:37:16;101028.94;;;9.76;100.00
4449;BME280;2237;51.870;6.160;2022-12-26T08:39:43;101024.50;;;9.82;100.00
4449;BME280;2237;51.870;6.160;2022-12-26T08:42:09;101025.28;;;9.89;100.00
4449;BME280;2237;51.870;6.160;2022-12-26T08:44:36;101018.31;;;9.91;100.00
4449;BME280;2237;51.870;6.160;2022-12-26T08:47:02;101024.22;;;10.00;100.00
4449;BME280;2237;51.870;6.160;2022-12-26T08:49:28;101023.25;;;10.04;100.00
4449;BME280;2237;51.870;6.160;2022-12-26T08:52:01;101035.19;;;10.19;100.00
4449;BME280;2237;51.870;6.160;2022-12-26T08:54:27;101040.41;;;10.19;100.00
4449;BME280;2237;51.870;6.160;2022-12-26T08:56:54;101024.59;;;10.30;100.00
4449;BME280;2237;51.870;6.160;2022-12-26T08:59:20;101018.25;;;10.44;100.00
4449;BME280;2237;51.870;6.160;2022-12-26T09:01:47;101017.31;;;10.48;100.00
4449;BME280;2237;51.870;6.160;2022-12-26T09:04:14;101025.84;;;10.56;100.00
4449;BME280;2237;51.870;6.160;2022-12-26T09:06:40;101012.72;;;10.61;100.00
4449;BME280;2237;51.870;6.160;2022-12-26T09:09:08;101028.25;;;10.65;100.00
4449;BME280;2237;51.870;6.160;2022-12-26T09:11:37;101037.72;;;10.69;100.00
4449;BME280;2237;51.870;6.160;2022-12-26T09:14:03;101041.19;;;10.70;100.00
4449;BME280;2237;51.870;6.160;2022-12-26T09:16:37;101040.22;;;10.75;100.00
4449;BME280;2237;51.870;6.160;2022-12-26T09:19:15;101040.22;;;10.75;100.00
4449;BME280;2237;51.870;6.160;2022-12-26T09:21:42;101036.69;;;10.80;100.00
4449;BME280;2237;51.870;6.160;2022-12-26T09:24:12;101051.34;;;10.84;100.00
4449;BME280;2237;51.870;6.160;2022-12-26T09:26:39;101047.75;;;10.91;100.00
4449;BME280;2237;51.870;6.160;2022-12-26T09:29:05;101035.47;;;10.96;100.00
4449;BME280;2237;51.870;6.160;2022-12-26T09:31:33;101049.50;;;10.89;100.00
4449;BME280;2237;51.870;6.160;2022-12-26T09:34:01;101046.00;;;10.90;100.00
4449;BME280;2237;51.870;6.160;2022-12-26T09:36:31;101035.47;;;10.96;100.00
4449;BME280;2237;51.870;6.160;2022-12-26T09:38:59;101050.78;;;11.11;100.00
4449;BME280;2237;51.870;6.160;2022-12-26T09:41:48;101043.53;;;11.25;100.00
4449;BME280;2237;51.870;6.160;2022-12-26T09:44:22;101052.84;;;11.37;100.00
4449;BME280;2237;51.870;6.160;2022-12-26T09:49:27;101058.06;;;11.35;100.00
4449;BME280;2237;51.870;6.160;2022-12-26T09:51:59;101063.63;;;11.20;100.00
4449;BME280;2237;51.870;6.160;2022-12-26T09:54:33;101065.91;;;11.35;100.00
4449;BME280;2237;51.870;6.160;2022-12-26T09:57:02;101057.38;;;11.27;100.00
4449;BME280;2237;51.870;6.160;2022-12-26T09:59:54;101056.13;;;11.45;100.00
4449;BME280;2237;51.870;6.160;2022-12-26T10:02:23;101045.44;;;11.57;100.00
4449;BME280;2237;51.870;6.160;2022-12-26T10:04:51;101051.25;;;11.69;100.00
4449;BME280;2237;51.870;6.160;2022-12-26T10:12:37;101073.25;;;11.56;100.00
4449;BME280;2237;51.870;6.160;2022-12-26T10:15:46;101102.00;;;11.53;100.00
4449;BME280;2237;51.870;6.160;2022-12-26T10:24:26;101083.28;;;11.36;100.00
4449;BME280;2237;51.870;6.160;2022-12-26T10:27:04;101084.31;;;11.27;100.00
4449;BME280;2237;51.870;6.160;2022-12-26T10:29:41;101089.50;;;11.29;100.00
4449;BME280;2237;51.870;6.160;2022-12-26T10:32:13;101104.63;;;11.12;100.00
4449;BME280;2237;51.870;6.160;2022-12-26T10:34:50;101096.91;;;11.07;100.00
4449;BME280;2237;51.870;6.160;2022-12-26T10:37:24;101107.22;;;11.12;100.00
4449;BME280;2237;51.870;6.160;2022-12-26T10:40:02;101112.66;;;11.01;100.00
4449;BME280;2237;51.870;6.160;2022-12-26T10:42:36;101124.94;;;10.95;100.00
4449;BME280;2237;51.870;6.160;2022-12-26T10:47:49;101152.78;;;10.42;100.00
4449;BME280;2237;51.870;6.160;2022-12-26T10:50:19;101149.47;;;10.34;100.00
4449;BME280;2237;51.870;6.160;2022-12-26T10:52:52;101152.88;;;10.38;100.00
4449;BME280;2237;51.870;6.160;2022-12-26T10:55:27;101159.31;;;10.15;100.00
4449;BME280;2237;51.870;6.160;2022-12-26T10:58:15;101163.59;;;10.19;100.00
4449;BME280;2237;51.870;6.160;2022-12-26T11:00:41;101156.50;;;10.29;100.00
4449;BME280;2237;51.870;6.160;2022-12-26T11:03:10;101152.91;;;10.36;100.00
4449;BME280;2237;51.870;6.160;2022-12-26T11:05:41;101162.56;;;10.28;100.00
4449;BME280;2237;51.870;6.160;2022-12-26T11:08:47;101170.28;;;10.34;100.00
4449;BME280;2237;51.870;6.160;2022-12-26T11:11:23;101177.41;;;10.23;100.00
4449;BME280;2237;51.870;6.160;2022-12-26T11:13:56;101190.59;;;10.09;100.00
4449;BME280;2237;51.870;6.160;2022-12-26T11:16:30;101188.88;;;10.08;100.00
4449;BME280;2237;51.870;6.160;2022-12-26T11:18:58;101212.50;;;9.95;100.00
4449;BME280;2237;51.870;6.160;2022-12-26T11:21:27;101209.94;;;9.92;100.00
4449;BME280;2237;51.870;6.160;2022-12-26T11:26:32;101206.25;;;10.06;100.00
4449;BME280;2237;51.870;6.160;2022-12-26T11:29:14;101215.72;;;10.10;100.00
4449;BME280;2237;51.870;6.160;2022-12-26T11:32:02;101221.78;;;10.12;100.00
4449;BME280;2237;51.870;6.160;2022-12-26T11:34:34;101214.63;;;10.30;100.00
4449;BME280;2237;51.870;6.160;2022-12-26T11:37:04;101222.78;;;10.04;100.00
4449;BME280;2237;51.870;6.160;2022-12-26T11:39:35;101224.25;;;10.23;100.00
4449;BME280;2237;51.870;6.160;2022-12-26T11:42:10;101235.72;;;10.08;100.00
4449;BME280;2237;51.870;6.160;2022-12-26T11:44:41;101227.88;;;10.13;100.00
4449;BME280;2237;51.870;6.160;2022-12-26T11:47:14;101243.69;;;9.98;100.00
4449;BME280;2237;51.870;6.160;2022-12-26T12:03:12;101265.44;;;9.91;100.00
4449;BME280;2237;51.870;6.160;2022-12-26T12:06:01;101266.59;;;9.69;100.00
4449;BME280;2237;51.870;6.160;2022-12-26T12:12:11;101275.13;;;9.78;100.00
4449;BME280;2237;51.870;6.160;2022-12-26T12:18:14;101281.38;;;9.62;100.00
4449;BME280;2237;51.870;6.160;2022-12-26T12:23:52;101287.59;;;9.50;100.00
4449;BME280;2237;51.870;6.160;2022-12-26T12:26:35;101276.25;;;9.57;100.00
4449;BME280;2237;51.870;6.160;2022-12-26T12:34:25;101297.66;;;9.79;100.00
4449;BME280;2237;51.870;6.160;2022-12-26T12:39:38;101302.88;;;9.79;100.00
4449;BME280;2237;51.870;6.160;2022-12-26T12:45:04;101306.09;;;10.01;100.00
4449;BME280;2237;51.870;6.160;2022-12-26T12:48:32;101315.47;;;10.11;100.00
4449;BME280;2237;51.870;6.160;2022-12-26T12:50:54;101312.72;;;10.26;100.00
4449;BME280;2237;51.870;6.160;2022-12-26T12:53:45;101305.06;;;10.15;100.00
4449;BME280;2237;51.870;6.160;2022-12-26T12:59:18;101307.69;;;10.11;100.00
4449;BME280;2237;51.870;6.160;2022-12-26T13:01:55;101318.19;;;10.02;100.00
4449;BME280;2237;51.870;6.160;2022-12-26T13:04:37;101307.47;;;10.29;100.00
4449;BME280;2237;51.870;6.160;2022-12-26T13:07:30;101322.28;;;10.26;100.00
4449;BME280;2237;51.870;6.160;2022-12-26T13:10:01;101324.88;;;10.26;100.00
4449;BME280;2237;51.870;6.160;2022-12-26T13:12:32;101326.91;;;10.01;100.00
4449;BME280;2237;51.870;6.160;2022-12-26T13:15:06;101323.28;;;10.11;100.00
4449;BME280;2237;51.870;6.160;2022-12-26T13:17:44;101318.22;;;9.99;100.00
4449;BME280;2237;51.870;6.160;2022-12-26T13:20:33;101320.03;;;9.95;100.00
4449;BME280;2237;51.870;6.160;2022-12-26T13:23:15;101316.78;;;9.77;100.00
4449;BME280;2237;51.870;6.160;2022-12-26T13:26:08;101319.06;;;10.04;100.00
4449;BME280;2237;51.870;6.160;2022-12-26T13:28:47;101321.97;;;9.77;100.00
4449;BME280;2237;51.870;6.160;2022-12-26T13:31:15;101329.53;;;9.96;100.00
4449;BME280;2237;51.870;6.160;2022-12-26T13:33:42;101330.94;;;10.25;100.00
4449;BME280;2237;51.870;6.160;2022-12-26T13:36:09;101330.03;;;10.30;100.00
4449;BME280;2237;51.870;6.160;2022-12-26T13:41:27;101337.38;;;9.95;100.00
4449;BME280;2237;51.870;6.160;2022-12-26T13:49:34;101343.69;;;10.47;100.00
4449;BME280;2237;51.870;6.160;2022-12-26T13:57:40;101361.94;;;12.84;93.12
4449;BME280;2237;51.870;6.160;2022-12-26T14:00:18;101362.34;;;12.26;95.66
4449;BME280;2237;51.870;6.160;2022-12-26T14:03:12;101378.97;;;11.26;100.00
4449;BME280;2237;51.870;6.160;2022-12-26T14:09:04;101378.38;;;10.49;100.00
4449;BME280;2237;51.870;6.160;2022-12-26T14:22:51;101402.44;;;9.90;100.00
4449;BME280;2237;51.870;6.160;2022-12-26T14:25:25;101414.13;;;9.51;100.00
4449;BME280;2237;51.870;6.160;2022-12-26T14:28:02;101413.38;;;9.37;100.00
4449;BME280;2237;51.870;6.160;2022-12-26T14:30:38;101408.16;;;9.36;100.00
4449;BME280;2237;51.870;6.160;2022-12-26T14:39:08;101414.59;;;8.88;100.00
4449;BME280;2237;51.870;6.160;2022-12-26T14:42:17;101416.31;;;8.86;100.00
4449;BME280;2237;51.870;6.160;2022-12-26T14:45:12;101425.72;;;9.05;100.00
4449;BME280;2237;51.870;6.160;2022-12-26T14:47:47;101425.78;;;8.99;100.00
4449;BME280;2237;51.870;6.160;2022-12-26T15:03:39;101448.56;;;8.33;100.00
4449;BME280;2237;51.870;6.160;2022-12-26T15:06:35;101458.13;;;8.12;100.00
4449;BME280;2237;51.870;6.160;2022-12-26T15:21:06;101485.84;;;7.75;100.00
4449;BME280;2237;51.870;6.160;2022-12-26T15:24:20;101505.72;;;7.68;100.00
4449;BME280;2237;51.870;6.160;2022-12-26T15:27:23;101506.56;;;7.57;100.00
4449;BME280;2237;51.870;6.160;2022-12-26T15:30:50;101515.19;;;7.62;100.00
4449;BME280;2237;51.870;6.160;2022-12-26T15:33:02;101515.19;;;7.63;100.00
4449;BME280;2237;51.870;6.160;2022-12-26T15:35:48;101532.50;;;7.70;100.00
4449;BME280;2237;51.870;6.160;2022-12-26T15:40:57;101526.41;;;7.58;100.00
4449;BME280;2237;51.870;6.160;2022-12-26T15:43:51;101538.53;;;7.59;100.00
4449;BME280;2237;51.870;6.160;2022-12-26T15:46:26;101538.50;;;7.53;100.00
4449;BME280;2237;51.870;6.160;2022-12-26T15:49:23;101547.13;;;7.38;100.00
4449;BME280;2237;51.870;6.160;2022-12-26T15:52:19;101548.84;;;7.33;100.00
4449;BME280;2237;51.870;6.160;2022-12-26T15:55:23;101539.34;;;7.30;100.00
4449;BME280;2237;51.870;6.160;2022-12-26T15:58:01;101546.22;;;7.28;100.00
4449;BME280;2237;51.870;6.160;2022-12-26T16:00:32;101544.50;;;7.24;100.00
4449;BME280;2237;51.870;6.160;2022-12-26T16:05:59;101561.75;;;7.10;100.00
4449;BME280;2237;51.870;6.160;2022-12-26T16:08:42;101562.59;;;7.08;100.00
4449;BME280;2237;51.870;6.160;2022-12-26T16:16:53;101586.75;;;7.11;100.00
4449;BME280;2237;51.870;6.160;2022-12-26T16:19:25;101591.06;;;7.09;100.00
4449;BME280;2237;51.870;6.160;2022-12-26T16:22:04;101584.16;;;7.11;100.00
4449;BME280;2237;51.870;6.160;2022-12-26T16:24:51;101579.78;;;6.92;100.00
4449;BME280;2237;51.870;6.160;2022-12-26T16:27:21;101575.53;;;7.06;100.00
4449;BME280;2237;51.870;6.160;2022-12-26T16:29:55;101578.97;;;7.01;100.00